Time;durP1;ratioP1;P1;durP2;ratioP2;P2;SDS_P1;SDS_P2;PMS_P1;PMS_P2;Temp;Humidity;BMP_temperature;BMP_pressure;BME280_temperature;BME280_humidity;BME280_pressure;Samples;Min_cycle;Max_cycle;Signal;HPM_P1;HPM_P2
2022/02/03 00:00:18;;;;;;;11.00;8.70;;;11.80;64.40;;;;;;4984693;28;20493;-44
2022/02/03 00:02:56;;;;;;;9.43;8.30;;;11.80;64.10;;;;;;4986865;28;20929;-44
2022/02/03 00:05:47;;;;;;;11.47;8.43;;;11.90;64.00;;;;;;4998460;28;20437;-45
2022/02/03 00:24:23;;;;;;;11.70;9.13;;;12.00;65.00;;;;;;4980875;28;20529;-46
2022/02/03 00:27:13;;;;;;;12.90;9.70;;;12.00;65.00;;;;;;4988465;28;20461;-45
2022/02/03 00:48:34;;;;;;;9.07;7.50;;;12.00;65.50;;;;;;4988389;28;20505;-45
2022/02/03 00:51:01;;;;;;;11.47;8.27;;;12.10;65.30;;;;;;4985042;28;20445;-45
2022/02/03 00:53:27;;;;;;;11.43;8.83;;;12.10;65.50;;;;;;4988299;28;20449;-45
2022/02/03 00:55:57;;;;;;;14.50;9.60;;;12.10;65.60;;;;;;4991971;28;20532;-45
2022/02/03 00:58:25;;;;;;;10.77;8.20;;;11.90;65.90;;;;;;4989086;28;20445;-44
2022/02/03 01:00:57;;;;;;;12.87;8.70;;;11.80;66.30;;;;;;4983432;28;20481;-46
2022/02/03 01:03:29;;;;;;;11.63;7.70;;;11.90;66.50;;;;;;4987806;28;20461;-44
2022/02/03 01:05:59;;;;;;;10.60;8.23;;;11.90;66.40;;;;;;4982846;28;20811;-47
2022/02/03 01:08:27;;;;;;;10.60;8.13;;;12.00;66.20;;;;;;4986631;28;20448;-44
2022/02/03 01:11:08;;;;;;;10.27;7.70;;;12.00;66.30;;;;;;4984735;28;20474;-44
2022/02/03 01:43:33;;;;;;;9.43;8.30;;;12.20;65.90;;;;;;4985108;28;20453;-46
2022/02/03 01:46:11;;;;;;;14.93;8.07;;;12.20;65.90;;;;;;4986910;28;20535;-48
2022/02/03 01:53:50;;;;;;;11.60;7.87;;;12.40;65.60;;;;;;4985655;28;20542;-45
2022/02/03 01:56:18;;;;;;;9.03;8.13;;;12.40;65.50;;;;;;4987367;28;20936;-47
2022/02/03 01:58:47;;;;;;;11.87;8.57;;;12.40;65.50;;;;;;4977799;28;20438;-48
2022/02/03 02:01:22;;;;;;;9.80;7.70;;;12.20;65.90;;;;;;4984166;28;20449;-46
2022/02/03 02:04:09;;;;;;;10.00;8.20;;;12.20;66.40;;;;;;4985356;28;20528;-47
2022/02/03 02:07:22;;;;;;;9.57;8.23;;;12.30;66.30;;;;;;4983203;28;20504;-44
2022/02/03 02:13:08;;;;;;;10.30;7.87;;;12.10;66.80;;;;;;4984400;28;20489;-46
2022/02/03 02:18:50;;;;;;;8.50;6.93;;;12.20;66.80;;;;;;4986963;28;20445;-46
2022/02/03 02:38:13;;;;;;;11.67;9.07;;;12.30;66.10;;;;;;4991962;28;20541;-46
2022/02/03 02:43:47;;;;;;;8.90;8.00;;;12.30;66.40;;;;;;4993844;28;20449;-48
2022/02/03 02:46:42;;;;;;;10.13;8.17;;;12.30;66.20;;;;;;4990524;28;20453;-44
2022/02/03 02:49:15;;;;;;;10.17;8.97;;;12.30;66.10;;;;;;4988415;28;20851;-45
2022/02/03 02:51:57;;;;;;;10.80;8.63;;;12.30;65.60;;;;;;4989117;28;20450;-44
2022/02/03 02:55:22;;;;;;;9.97;7.90;;;12.30;65.80;;;;;;4992029;28;20442;-44
2022/02/03 03:31:19;;;;;;;10.93;7.43;;;12.40;66.60;;;;;;4989230;28;20452;-47
2022/02/03 03:35:49;;;;;;;7.23;6.53;;;12.40;66.70;;;;;;4987410;28;20501;-45
2022/02/03 03:38:20;;;;;;;7.10;6.37;;;12.30;66.70;;;;;;4987539;28;20450;-45
2022/02/03 03:40:52;;;;;;;7.60;6.67;;;12.30;67.10;;;;;;4990079;28;20554;-44
2022/02/03 03:43:35;;;;;;;7.27;6.57;;;12.40;66.90;;;;;;4983057;28;20460;-45
2022/02/03 03:46:15;;;;;;;7.33;6.63;;;12.40;67.00;;;;;;4988612;28;20481;-45
2022/02/03 03:49:12;;;;;;;7.80;7.00;;;12.40;67.00;;;;;;4988500;28;20433;-46
2022/02/03 03:51:47;;;;;;;9.10;6.60;;;12.40;67.00;;;;;;4976711;28;20481;-45
2022/02/03 03:54:55;;;;;;;8.10;7.30;;;12.30;66.90;;;;;;4990624;28;20457;-46
2022/02/03 04:35:04;;;;;;;5.60;4.57;;;12.60;66.50;;;;;;4987919;28;20460;-46
2022/02/03 04:38:11;;;;;;;5.17;4.60;;;12.70;66.30;;;;;;4988385;28;20453;-45
2022/02/03 05:04:37;;;;;;;6.40;5.80;;;12.80;65.60;;;;;;4985979;28;20445;-45
2022/02/03 05:16:38;;;;;;;6.30;5.70;;;12.90;65.60;;;;;;4986454;28;20915;-45
2022/02/03 05:35:29;;;;;;;5.73;5.07;;;12.80;65.50;;;;;;4986462;28;20979;-46
2022/02/03 06:07:53;;;;;;;6.40;5.60;;;12.80;63.90;;;;;;4989134;28;20945;-46
2022/02/03 06:13:10;;;;;;;5.97;5.37;;;12.70;63.80;;;;;;4990190;28;20480;-45
2022/02/03 06:15:45;;;;;;;5.73;5.00;;;12.70;64.10;;;;;;4991550;28;20445;-45
2022/02/03 06:29:08;;;;;;;6.33;5.63;;;12.40;65.00;;;;;;4988222;28;20464;-44
2022/02/03 06:31:38;;;;;;;6.43;5.33;;;12.40;65.20;;;;;;4987475;28;20453;-46
2022/02/03 06:34:05;;;;;;;6.70;6.00;;;12.40;65.10;;;;;;4988956;28;20524;-45
2022/02/03 06:36:32;;;;;;;6.37;5.77;;;12.50;65.20;;;;;;4989670;28;20999;-45
2022/02/03 06:38:58;;;;;;;7.50;6.43;;;12.60;65.60;;;;;;4990059;28;20446;-45
2022/02/03 06:41:23;;;;;;;6.43;5.83;;;12.80;66.60;;;;;;4992333;28;20449;-45
2022/02/03 06:43:49;;;;;;;6.93;5.43;;;13.00;66.30;;;;;;4989150;28;20199;-43
2022/02/03 06:46:15;;;;;;;7.80;5.10;;;13.20;65.80;;;;;;4990322;28;20562;-44
2022/02/03 06:48:45;;;;;;;12.33;5.80;;;13.30;65.30;;;;;;4988760;28;20893;-44
2022/02/03 06:51:18;;;;;;;5.83;5.07;;;13.40;64.00;;;;;;4990148;28;20449;-44
2022/02/03 06:53:48;;;;;;;7.73;6.30;;;13.40;64.10;;;;;;4989075;28;20816;-43
2022/02/03 06:56:33;;;;;;;6.73;5.57;;;13.60;63.80;;;;;;4985024;28;20439;-45
2022/02/03 06:59:01;;;;;;;8.27;4.80;;;13.70;63.10;;;;;;4994449;28;20450;-44
2022/02/03 07:01:36;;;;;;;5.20;4.60;;;13.70;62.40;;;;;;4995893;28;20434;-44
2022/02/03 07:04:06;;;;;;;5.30;4.67;;;13.70;62.70;;;;;;4986540;28;20516;-45
2022/02/03 07:06:33;;;;;;;6.63;4.60;;;13.70;62.30;;;;;;4991953;28;20850;-44
2022/02/03 07:09:07;;;;;;;5.80;4.90;;;13.70;61.60;;;;;;4990975;28;20804;-44
2022/02/03 07:11:32;;;;;;;6.10;5.53;;;13.80;61.40;;;;;;5004962;28;20473;-44
2022/02/03 07:13:58;;;;;;;6.40;5.77;;;13.70;61.80;;;;;;5000066;28;20444;-44
2022/02/03 07:16:24;;;;;;;4.77;4.27;;;13.60;62.30;;;;;;4994401;28;20260;-44
2022/02/03 07:18:49;;;;;;;6.43;4.73;;;13.60;62.30;;;;;;4992401;28;20637;-44
2022/02/03 07:21:15;;;;;;;6.03;5.30;;;13.70;62.00;;;;;;4985795;28;20203;-44
2022/02/03 07:23:40;;;;;;;6.73;5.80;;;13.80;61.60;;;;;;4991426;28;20198;-44
2022/02/03 07:26:06;;;;;;;6.07;5.47;;;13.90;61.10;;;;;;4994859;28;20195;-44
2022/02/03 07:28:34;;;;;;;7.10;6.10;;;13.90;61.10;;;;;;4994172;28;20199;-45
2022/02/03 07:31:00;;;;;;;5.73;5.23;;;14.00;61.20;;;;;;4998190;28;20570;-44
2022/02/03 07:33:26;;;;;;;5.57;4.70;;;14.10;60.70;;;;;;4989023;28;20495;-45
2022/02/03 07:35:51;;;;;;;6.73;5.90;;;14.20;60.50;;;;;;4980894;28;20517;-44
2022/02/03 07:38:21;;;;;;;6.43;5.43;;;14.10;60.40;;;;;;4990030;28;20202;-44
2022/02/03 07:40:49;;;;;;;6.00;5.47;;;14.00;60.40;;;;;;4985369;28;20273;-44
2022/02/03 07:43:14;;;;;;;8.20;6.00;;;14.10;60.60;;;;;;4991410;28;20457;-44
2022/02/03 07:45:40;;;;;;;6.53;5.60;;;14.00;60.30;;;;;;4993239;28;20967;-45
2022/02/03 07:48:06;;;;;;;6.43;5.83;;;13.90;61.00;;;;;;4992313;28;20218;-44
2022/02/03 07:50:31;;;;;;;6.03;5.20;;;13.90;61.20;;;;;;4991224;28;20273;-45
2022/02/03 07:52:57;;;;;;;5.33;4.83;;;14.00;61.30;;;;;;4991805;28;20654;-46
2022/02/03 07:55:23;;;;;;;5.37;4.87;;;14.20;61.10;;;;;;4993110;28;20282;-44
2022/02/03 07:57:50;;;;;;;6.20;5.60;;;14.20;60.30;;;;;;4992144;28;20830;-44
2022/02/03 08:00:17;;;;;;;5.17;4.77;;;14.30;59.80;;;;;;4990330;28;20235;-44
2022/02/03 08:02:44;;;;;;;5.20;4.80;;;14.40;59.70;;;;;;4987697;28;20496;-45
2022/02/03 08:05:15;;;;;;;6.30;5.70;;;14.50;59.70;;;;;;4991144;28;20466;-44
2022/02/03 08:07:55;;;;;;;13.87;9.43;;;14.60;59.50;;;;;;4990857;28;20441;-45
2022/02/03 08:13:02;;;;;;;6.53;5.03;;;14.60;59.00;;;;;;4993011;28;20499;-43
2022/02/03 08:15:29;;;;;;;6.23;5.60;;;14.60;59.50;;;;;;4987276;28;20450;-45
2022/02/03 08:18:02;;;;;;;12.53;10.37;;;14.60;59.50;;;;;;4989549;28;20434;-44
2022/02/03 08:20:27;;;;;;;15.67;12.20;;;14.70;59.50;;;;;;4988074;28;20482;-43
2022/02/03 08:23:11;;;;;;;8.10;6.77;;;14.80;59.10;;;;;;4984362;28;20441;-43
2022/02/03 08:25:41;;;;;;;7.40;6.60;;;14.80;58.80;;;;;;4984926;28;20221;-44
2022/02/03 08:31:00;;;;;;;5.87;5.20;;;14.80;59.50;;;;;;4989981;28;20437;-46
2022/02/03 08:33:26;;;;;;;5.33;4.93;;;14.90;59.70;;;;;;4986575;28;20478;-44
2022/02/03 08:35:52;;;;;;;6.60;5.13;;;14.90;59.50;;;;;;4983326;28;20536;-43
2022/02/03 08:43:14;;;;;;;6.37;5.03;;;14.90;59.10;;;;;;4995529;28;20445;-44
2022/02/03 08:45:41;;;;;;;6.60;5.97;;;14.90;59.20;;;;;;4986031;28;20442;-44
2022/02/03 08:48:07;;;;;;;6.40;5.63;;;14.90;59.40;;;;;;4988983;28;20433;-43
2022/02/03 08:50:34;;;;;;;6.93;5.20;;;14.90;59.90;;;;;;4987014;28;20445;-44
2022/02/03 08:53:25;;;;;;;6.50;4.80;;;14.90;60.10;;;;;;4988663;28;20471;-44
2022/02/03 09:28:58;;;;;;;5.07;4.67;;;15.00;59.70;;;;;;4991030;28;20500;-43
2022/02/03 09:58:18;;;;;;;4.40;4.10;;;15.20;59.30;;;;;;4976286;28;20432;-47
2022/02/03 10:03:36;;;;;;;5.90;5.10;;;15.10;59.20;;;;;;4992053;28;20872;-45
2022/02/03 10:06:09;;;;;;;5.90;5.10;;;14.90;60.60;;;;;;4992856;28;20840;-44
2022/02/03 10:08:35;;;;;;;4.90;4.50;;;15.20;60.30;;;;;;4994831;28;20469;-44
2022/02/03 10:11:16;;;;;;;4.50;4.13;;;15.20;59.50;;;;;;4992873;28;20488;-44
2022/02/03 10:13:44;;;;;;;7.17;4.40;;;15.20;59.60;;;;;;4992488;28;21026;-45
2022/02/03 10:16:10;;;;;;;3.10;2.90;;;15.20;59.90;;;;;;4995857;28;20450;-47
2022/02/03 10:18:36;;;;;;;4.50;2.43;;;15.20;58.80;;;;;;5003559;28;20504;-47
2022/02/03 10:21:02;;;;;;;2.70;2.50;;;15.30;58.40;;;;;;4990615;28;20523;-43
2022/02/03 10:23:31;;;;;;;2.33;2.13;;;15.40;58.60;;;;;;4990612;28;20521;-44
2022/02/03 10:26:08;;;;;;;2.60;2.40;;;15.50;58.20;;;;;;4991628;28;20442;-47
2022/02/03 10:28:36;;;;;;;2.60;2.20;;;15.60;58.00;;;;;;4991862;28;20854;-46
2022/02/03 10:31:04;;;;;;;2.83;2.63;;;15.70;57.30;;;;;;4987668;28;20807;-44
2022/02/03 10:33:31;;;;;;;2.60;2.40;;;15.50;56.40;;;;;;4987988;28;20792;-44
2022/02/03 10:36:01;;;;;;;2.00;1.90;;;15.30;57.50;;;;;;4991903;28;20864;-45
2022/02/03 10:38:55;;;;;;;2.13;2.00;;;15.50;58.40;;;;;;4993164;28;20508;-47
2022/02/03 11:13:02;;;;;;;2.37;1.90;;;15.30;57.00;;;;;;4991142;28;20508;-44
2022/02/03 11:15:30;;;;;;;1.90;1.80;;;15.00;57.20;;;;;;4988104;28;20430;-45
2022/02/03 11:17:59;;;;;;;3.93;1.93;;;14.80;57.50;;;;;;4994997;28;20877;-44
2022/02/03 11:20:31;;;;;;;2.23;2.03;;;14.70;57.40;;;;;;4992310;28;20489;-43
2022/02/03 11:44:59;;;;;;;3.60;2.67;;;14.80;57.50;;;;;;4981047;28;20812;-45
2022/02/03 12:01:46;;;;;;;3.70;2.30;;;15.50;55.70;;;;;;4988314;28;20501;-44
2022/02/03 12:04:34;;;;;;;2.50;2.30;;;15.40;54.90;;;;;;4983381;28;20442;-44
2022/02/03 12:07:31;;;;;;;2.20;2.10;;;15.10;55.60;;;;;;4990730;28;20492;-44
2022/02/03 12:16:11;;;;;;;3.43;2.63;;;15.60;55.80;;;;;;4991288;28;20445;-46
2022/02/03 12:21:33;;;;;;;4.70;2.77;;;15.90;55.10;;;;;;4987779;28;20497;-46
2022/02/03 12:24:31;;;;;;;3.03;2.07;;;15.80;54.50;;;;;;4985951;28;20440;-45
2022/02/03 12:29:44;;;;;;;2.40;2.20;;;15.90;54.10;;;;;;4993500;28;20437;-46
2022/02/03 12:37:49;;;;;;;2.57;1.70;;;16.10;54.60;;;;;;4990605;28;20432;-46
2022/02/03 12:40:30;;;;;;;2.33;2.07;;;16.10;54.30;;;;;;4989733;28;20516;-45
2022/02/03 12:45:40;;;;;;;2.00;1.90;;;16.30;53.60;;;;;;4982761;28;20446;-46
2022/02/03 12:48:06;;;;;;;3.80;1.40;;;16.30;53.30;;;;;;4990782;28;20607;-46
2022/02/03 12:50:35;;;;;;;1.50;1.40;;;16.30;53.10;;;;;;4990535;28;20445;-45
2022/02/03 12:53:02;;;;;;;1.33;1.23;;;15.80;53.00;;;;;;4990757;28;20453;-47
2022/02/03 12:55:37;;;;;;;1.53;1.43;;;15.90;53.60;;;;;;4986024;28;20418;-45
2022/02/03 12:58:05;;;;;;;1.53;1.20;;;16.10;53.70;;;;;;4986736;28;20437;-45
2022/02/03 13:00:43;;;;;;;1.57;1.47;;;16.10;53.80;;;;;;4989443;28;20481;-47
2022/02/03 13:03:12;;;;;;;1.37;1.17;;;16.20;53.40;;;;;;4989516;28;20569;-47
2022/02/03 13:05:40;;;;;;;1.80;1.70;;;16.30;53.10;;;;;;4988082;28;20445;-47
2022/02/03 13:08:09;;;;;;;1.73;1.30;;;16.40;52.90;;;;;;4990403;28;20449;-45
2022/02/03 13:10:37;;;;;;;1.80;1.53;;;16.50;52.70;;;;;;4990423;28;20442;-45
2022/02/03 13:13:19;;;;;;;3.83;2.10;;;16.50;52.50;;;;;;4989637;28;20511;-44
2022/02/03 13:15:45;;;;;;;1.40;1.30;;;16.30;52.30;;;;;;4991093;28;20588;-49
2022/02/03 13:18:18;;;;;;;1.60;1.50;;;16.20;52.40;;;;;;4990343;28;20445;-45
2022/02/03 13:20:54;;;;;;;1.73;1.63;;;16.20;52.30;;;;;;4983289;28;20516;-44
2022/02/03 13:23:24;;;;;;;1.80;1.70;;;16.20;51.90;;;;;;4990293;28;20506;-46
2022/02/03 13:25:59;;;;;;;1.60;1.50;;;16.20;52.70;;;;;;4991421;28;20824;-45
2022/02/03 13:31:02;;;;;;;3.80;1.30;;;16.20;53.10;;;;;;4983477;28;20442;-46
2022/02/03 13:33:36;;;;;;;1.40;1.30;;;16.20;53.20;;;;;;4977554;28;20441;-45
2022/02/03 13:36:12;;;;;;;2.67;1.93;;;16.20;52.80;;;;;;4984888;28;20529;-46
2022/02/03 13:38:54;;;;;;;1.50;1.40;;;16.30;52.80;;;;;;4986991;28;20448;-44
2022/02/03 13:41:24;;;;;;;3.00;1.73;;;16.30;52.40;;;;;;4990488;28;20504;-44
2022/02/03 13:43:50;;;;;;;1.73;1.40;;;15.80;53.10;;;;;;4989543;28;20449;-47
2022/02/03 13:46:31;;;;;;;3.03;1.97;;;15.70;53.60;;;;;;4987048;28;20452;-45
2022/02/03 13:48:57;;;;;;;2.00;1.57;;;15.80;53.50;;;;;;4983550;28;20270;-45
2022/02/03 13:51:36;;;;;;;2.60;1.83;;;15.90;53.50;;;;;;4984271;28;20468;-45
2022/02/03 13:54:25;;;;;;;2.07;1.87;;;15.70;53.60;;;;;;4982167;28;20512;-44
2022/02/03 14:16:44;;;;;;;2.00;1.80;;;16.00;52.80;;;;;;4986165;28;20804;-44
2022/02/03 14:21:42;;;;;;;2.47;1.67;;;15.80;53.10;;;;;;4994988;28;20465;-45
2022/02/03 14:29:25;;;;;;;1.87;1.77;;;16.00;53.00;;;;;;4993019;28;20429;-44
2022/02/03 14:31:59;;;;;;;1.67;1.57;;;16.10;52.70;;;;;;4988583;28;20511;-45
2022/02/03 14:34:31;;;;;;;1.60;1.50;;;16.30;52.50;;;;;;4992642;28;20921;-45
2022/02/03 14:37:03;;;;;;;1.67;1.57;;;16.40;52.20;;;;;;4989513;28;20434;-44
2022/02/03 14:39:46;;;;;;;1.50;1.40;;;16.50;52.00;;;;;;4993332;28;20530;-44
2022/02/03 14:42:12;;;;;;;1.80;1.70;;;16.50;51.70;;;;;;4992653;28;20433;-44
2022/02/03 14:44:40;;;;;;;3.10;2.30;;;16.30;51.90;;;;;;4983965;28;20439;-44
2022/02/03 14:47:10;;;;;;;1.80;1.70;;;16.30;52.10;;;;;;4994138;28;20348;-44
2022/02/03 14:49:39;;;;;;;1.90;1.70;;;16.00;52.10;;;;;;4992550;28;20430;-44
2022/02/03 14:52:13;;;;;;;1.50;1.30;;;16.00;52.60;;;;;;4992706;28;20797;-45
2022/02/03 15:00:11;;;;;;;1.87;1.60;;;16.20;52.20;;;;;;4993551;28;20539;-45
2022/02/03 15:02:37;;;;;;;2.10;1.90;;;16.30;52.00;;;;;;4990285;28;20496;-45
2022/02/03 15:05:10;;;;;;;2.23;1.67;;;16.30;52.00;;;;;;4991343;28;20438;-45
2022/02/03 15:07:41;;;;;;;1.97;1.30;;;16.40;52.00;;;;;;4989795;28;20194;-45
2022/02/03 15:10:30;;;;;;;2.30;2.10;;;16.50;52.00;;;;;;4987495;28;20437;-45
2022/02/03 15:15:24;;;;;;;3.37;2.60;;;16.50;52.00;;;;;;4991525;28;20553;-44
2022/02/03 15:17:50;;;;;;;2.43;2.23;;;16.60;52.10;;;;;;4989246;28;20561;-43
2022/02/03 15:20:15;;;;;;;3.00;2.60;;;16.50;51.90;;;;;;4989628;28;20332;-45
2022/02/03 15:22:41;;;;;;;3.37;2.13;;;16.30;52.00;;;;;;4991257;28;20209;-44
2022/02/03 15:25:07;;;;;;;2.53;2.07;;;16.20;52.20;;;;;;4993217;28;20649;-44
2022/02/03 15:27:32;;;;;;;2.73;2.53;;;16.20;52.30;;;;;;4993073;28;20272;-44
2022/02/03 15:30:02;;;;;;;3.40;2.60;;;16.30;52.30;;;;;;4991560;28;21008;-44
2022/02/03 15:32:28;;;;;;;3.30;2.57;;;16.40;52.20;;;;;;4991692;28;20203;-44
2022/02/03 15:34:54;;;;;;;3.60;3.30;;;16.40;52.30;;;;;;4994127;28;20445;-44
2022/02/03 15:37:21;;;;;;;6.30;3.30;;;16.40;52.30;;;;;;4983157;28;20207;-44
2022/02/03 15:39:52;;;;;;;3.47;3.17;;;16.40;52.80;;;;;;4992692;28;20499;-44
2022/02/03 15:42:24;;;;;;;4.63;3.50;;;16.40;52.60;;;;;;4990341;28;20487;-44
2022/02/03 15:44:53;;;;;;;3.10;2.57;;;16.30;52.40;;;;;;4981195;28;20465;-44
2022/02/03 15:47:35;;;;;;;3.07;2.60;;;16.20;52.30;;;;;;4992083;28;20444;-46
2022/02/03 16:03:31;;;;;;;8.20;6.90;;;16.20;53.50;;;;;;4989309;28;20460;-45
2022/02/03 16:19:22;;;;;;;4.50;3.40;;;16.10;53.60;;;;;;4998044;28;20254;-45
2022/02/03 16:21:55;;;;;;;4.83;3.20;;;16.00;53.70;;;;;;4992765;28;20532;-46
2022/02/03 16:24:37;;;;;;;4.20;3.03;;;16.00;54.10;;;;;;4991351;28;20435;-47
2022/02/03 16:51:25;;;;;;;5.60;4.37;;;16.30;54.00;;;;;;4992173;28;20499;-46
2022/02/03 16:53:50;;;;;;;8.03;5.20;;;16.30;53.80;;;;;;4989425;28;20445;-45
2022/02/03 16:56:17;;;;;;;15.07;11.20;;;16.40;53.60;;;;;;4992364;28;20439;-45
2022/02/03 16:58:45;;;;;;;12.53;6.60;;;16.30;53.60;;;;;;4991677;28;20199;-44
2022/02/03 17:01:11;;;;;;;6.03;4.57;;;16.40;53.80;;;;;;4992170;28;20521;-43
2022/02/03 17:03:36;;;;;;;4.87;3.97;;;16.40;53.80;;;;;;4991652;28;21485;-43
2022/02/03 17:06:02;;;;;;;5.17;4.43;;;16.40;53.70;;;;;;4992709;28;20194;-45
2022/02/03 17:08:28;;;;;;;3.80;3.37;;;16.30;53.70;;;;;;4991404;28;20194;-46
2022/02/03 17:10:54;;;;;;;8.40;3.87;;;16.40;53.80;;;;;;4987013;28;20202;-44
2022/02/03 17:13:20;;;;;;;3.90;3.50;;;16.40;53.50;;;;;;4989849;28;20195;-44
2022/02/03 17:15:45;;;;;;;4.00;3.60;;;16.40;53.20;;;;;;4987365;28;20435;-45
2022/02/03 17:18:13;;;;;;;5.17;3.80;;;16.30;53.00;;;;;;5006869;28;21262;-46
2022/02/03 17:20:41;;;;;;;5.37;3.57;;;16.30;53.20;;;;;;4982481;28;20264;-48
2022/02/03 17:23:09;;;;;;;5.80;4.80;;;16.30;53.20;;;;;;4991144;28;20863;-49
2022/02/03 17:25:46;;;;;;;5.80;4.27;;;16.20;53.20;;;;;;4992178;28;20457;-48
2022/02/03 17:28:19;;;;;;;7.40;4.80;;;16.10;53.30;;;;;;4991823;28;20434;-47
2022/02/03 18:37:06;;;;;;;4.93;4.43;;;14.80;57.00;;;;;;4993420;28;20469;-49
2022/02/03 18:57:50;;;;;;;6.63;6.03;;;15.20;56.00;;;;;;4982497;28;20443;-47
2022/02/03 19:09:40;;;;;;;10.60;6.80;;;15.20;55.70;;;;;;4993683;28;20461;-46
2022/02/03 19:12:13;;;;;;;6.37;5.77;;;15.20;56.00;;;;;;4993533;28;20964;-46
2022/02/03 19:14:31;;;;;;;6.63;6.03;;;15.20;55.90;;;;;;4993335;28;20430;-45
2022/02/03 20:08:24;;;;;;;17.57;11.90;;;14.70;56.80;;;;;;4989218;28;20943;-43
2022/02/03 20:10:52;;;;;;;13.43;10.40;;;14.70;56.50;;;;;;4987595;28;20439;-49
2022/02/03 20:13:18;;;;;;;12.73;10.10;;;14.80;56.40;;;;;;4992199;28;20438;-45
2022/02/03 20:15:46;;;;;;;10.60;7.93;;;14.80;55.90;;;;;;4986970;28;20434;-44
2022/02/03 20:18:17;;;;;;;18.73;12.30;;;14.80;56.00;;;;;;4986416;28;20280;-45
2022/02/03 20:20:44;;;;;;;19.47;13.93;;;14.80;55.60;;;;;;4993368;28;20499;-46
2022/02/03 20:23:14;;;;;;;18.00;13.63;;;14.80;55.40;;;;;;4992008;28;20531;-46
2022/02/03 20:25:43;;;;;;;19.73;13.23;;;14.60;55.30;;;;;;4991900;28;20430;-44
2022/02/03 20:28:09;;;;;;;18.23;13.23;;;14.50;55.70;;;;;;4992563;28;20440;-46
2022/02/03 20:30:36;;;;;;;17.90;13.30;;;14.40;55.80;;;;;;4986942;28;20447;-48
2022/02/03 20:33:02;;;;;;;18.37;13.50;;;14.40;56.20;;;;;;4987400;28;20445;-46
2022/02/03 20:35:28;;;;;;;19.07;14.40;;;14.40;56.30;;;;;;4993078;28;20824;-46
2022/02/03 20:37:54;;;;;;;16.87;12.67;;;14.30;56.20;;;;;;4990643;28;20516;-43
2022/02/03 20:40:20;;;;;;;19.07;11.43;;;14.20;56.30;;;;;;4992361;28;20481;-45
2022/02/03 20:42:46;;;;;;;14.50;12.03;;;14.20;57.20;;;;;;4989174;28;20339;-46
2022/02/03 20:45:12;;;;;;;15.10;12.43;;;14.20;56.90;;;;;;4988465;28;20195;-44
2022/02/03 20:47:38;;;;;;;14.00;12.60;;;14.30;56.80;;;;;;4989309;28;20556;-44
2022/02/03 20:50:08;;;;;;;19.97;12.67;;;14.30;56.50;;;;;;4990552;28;20434;-45
2022/02/03 20:52:34;;;;;;;15.60;12.20;;;14.30;56.40;;;;;;4992060;28;20430;-44
2022/02/03 20:55:00;;;;;;;17.83;12.00;;;14.20;56.50;;;;;;4988347;28;20456;-44
2022/02/03 20:57:26;;;;;;;13.60;12.17;;;14.30;56.70;;;;;;4987503;28;20430;-44
2022/02/03 21:00:13;;;;;;;13.57;10.60;;;14.50;56.60;;;;;;4985569;28;20230;-44
2022/02/03 21:02:45;;;;;;;14.57;12.70;;;14.60;56.20;;;;;;4985330;28;20705;-44
2022/02/03 21:05:16;;;;;;;12.43;11.13;;;14.70;56.10;;;;;;4990089;28;20449;-44
2022/02/03 21:07:43;;;;;;;14.97;13.37;;;14.70;55.80;;;;;;4987468;28;20445;-44
2022/02/03 21:10:13;;;;;;;15.93;13.77;;;14.70;56.00;;;;;;4987200;28;20457;-46
2022/02/03 21:12:39;;;;;;;15.40;13.70;;;14.70;55.50;;;;;;4989057;28;20544;-44
2022/02/03 21:15:07;;;;;;;16.07;14.23;;;14.70;55.30;;;;;;4986250;28;20445;-44
2022/02/03 21:17:33;;;;;;;15.50;12.50;;;14.60;55.30;;;;;;4986186;28;20446;-46
2022/02/03 21:20:09;;;;;;;14.10;11.33;;;14.50;55.40;;;;;;4987344;28;20484;-44
2022/02/03 21:22:37;;;;;;;17.00;11.97;;;14.40;55.60;;;;;;4985153;28;20870;-44
2022/02/03 21:28:14;;;;;;;15.47;10.73;;;14.40;56.30;;;;;;4975020;28;20532;-46
2022/02/03 21:30:41;;;;;;;11.37;9.80;;;14.40;56.10;;;;;;4992883;28;20441;-44
2022/02/03 21:33:14;;;;;;;13.20;9.03;;;14.30;56.00;;;;;;4989225;28;20488;-44
2022/02/03 21:35:44;;;;;;;13.43;9.97;;;14.20;56.00;;;;;;4990705;28;20442;-44
2022/02/03 21:38:09;;;;;;;11.10;9.27;;;14.20;56.10;;;;;;4991230;28;20507;-44
2022/02/03 21:40:35;;;;;;;9.90;8.50;;;14.10;56.50;;;;;;4994916;28;20934;-44
2022/02/03 21:43:03;;;;;;;17.10;9.27;;;14.10;56.60;;;;;;4987585;28;20201;-44
2022/02/03 21:45:31;;;;;;;10.33;8.57;;;14.10;56.50;;;;;;4994414;28;20321;-44
2022/02/03 21:47:57;;;;;;;9.13;8.10;;;14.10;56.30;;;;;;4985829;28;20941;-44
2022/02/03 21:50:23;;;;;;;9.30;6.50;;;14.10;56.40;;;;;;4991787;28;20539;-45
2022/02/03 21:52:53;;;;;;;8.73;7.93;;;14.20;56.40;;;;;;4990085;28;20478;-45
2022/02/03 21:55:20;;;;;;;8.90;7.93;;;14.30;55.80;;;;;;4989308;28;20532;-44
2022/02/03 21:57:50;;;;;;;7.40;6.60;;;14.30;55.30;;;;;;4993344;28;20540;-45
2022/02/03 22:00:18;;;;;;;9.13;7.10;;;14.30;55.20;;;;;;4990829;28;21054;-44
2022/02/03 22:02:44;;;;;;;8.23;7.23;;;14.30;55.40;;;;;;4988727;28;20449;-44
2022/02/03 22:05:13;;;;;;;7.67;6.87;;;14.30;55.50;;;;;;4991463;28;20458;-44
2022/02/03 22:07:43;;;;;;;8.17;7.40;;;14.40;55.50;;;;;;4990623;28;20511;-45
2022/02/03 22:10:11;;;;;;;9.10;8.20;;;14.40;55.60;;;;;;4994367;28;20541;-44
2022/02/03 22:12:36;;;;;;;10.73;9.73;;;14.40;55.20;;;;;;4986582;28;20469;-45
2022/02/03 22:15:05;;;;;;;11.80;9.73;;;14.40;55.00;;;;;;4990328;28;20438;-44
2022/02/03 22:17:31;;;;;;;13.33;9.07;;;14.30;54.70;;;;;;4987049;28;20202;-43
2022/02/03 22:20:00;;;;;;;10.93;8.70;;;14.20;55.00;;;;;;4990325;28;20478;-44
2022/02/03 22:25:39;;;;;;;17.40;10.00;;;14.20;55.20;;;;;;4988775;28;20449;-44
2022/02/03 22:28:31;;;;;;;9.20;7.50;;;14.10;54.90;;;;;;4987698;28;20549;-44
2022/02/03 22:45:00;;;;;;;13.10;8.37;;;13.70;56.00;;;;;;5004309;28;20810;-50
2022/02/03 22:47:39;;;;;;;9.27;7.60;;;13.70;55.90;;;;;;5004687;28;20486;-49
2022/02/03 22:50:07;;;;;;;10.10;8.27;;;13.70;56.00;;;;;;5010369;28;20487;-52
2022/02/03 22:52:42;;;;;;;9.27;7.60;;;13.70;56.00;;;;;;5012918;28;20444;-50
2022/02/03 22:55:08;;;;;;;15.83;7.40;;;13.70;56.00;;;;;;5018143;28;20452;-52
2022/02/03 22:57:34;;;;;;;8.73;7.30;;;13.70;55.90;;;;;;5010113;28;20858;-50
2022/02/03 23:00:18;;;;;;;12.83;8.03;;;13.70;56.10;;;;;;5007425;28;20525;-49
2022/02/03 23:02:43;;;;;;;8.23;7.43;;;13.60;56.20;;;;;;5005148;28;20186;-48
2022/02/03 23:05:12;;;;;;;10.13;7.77;;;13.70;56.30;;;;;;5009811;28;20807;-48
2022/02/03 23:10:25;;;;;;;11.93;7.57;;;13.70;56.10;;;;;;5017321;28;20455;-51
2022/02/03 23:18:02;;;;;;;12.93;9.97;;;13.80;56.70;;;;;;5006440;28;20299;-50
2022/02/03 23:20:42;;;;;;;11.20;9.40;;;13.90;56.40;;;;;;5012651;28;20563;-52
2022/02/03 23:23:08;;;;;;;19.53;14.27;;;13.90;56.10;;;;;;5010424;28;20452;-48
2022/02/03 23:25:36;;;;;;;22.57;15.13;;;13.90;56.10;;;;;;5008002;28;20974;-48
2022/02/03 23:28:21;;;;;;;17.40;12.17;;;14.00;56.20;;;;;;5005332;28;20680;-48
2022/02/03 23:30:48;;;;;;;17.90;12.60;;;14.00;56.30;;;;;;5010707;28;20473;-51
2022/02/03 23:33:13;;;;;;;18.27;13.00;;;14.10;56.00;;;;;;5006234;28;20946;-48
2022/02/03 23:35:41;;;;;;;15.60;11.23;;;14.10;55.60;;;;;;5007969;28;20451;-52
2022/02/03 23:38:27;;;;;;;23.63;14.07;;;14.10;55.50;;;;;;5006970;28;20696;-48
